Time;durP1;ratioP1;P1;durP2;ratioP2;P2;SDS_P1;SDS_P2;PMS_P1;PMS_P2;Temp;Humidity;BMP_temperature;BMP_pressure;BME280_temperature;BME280_humidity;BME280_pressure;Samples;Min_cycle;Max_cycle;Signal;HPM_P1;HPM_P2
2022/11/23 00:01:38;;;;;;;0.30;0.30;;;9.70;99.90;10.00;99320.00;;;;5034082;28;20198;-71
2022/11/23 00:04:08;;;;;;;0.40;0.40;;;9.70;99.90;10.00;99330.00;;;;5035111;28;20669;-71
2022/11/23 00:06:34;;;;;;;4.43;0.93;;;9.60;99.90;9.70;99295.00;;;;5033814;28;20473;-71
2022/11/23 00:09:00;;;;;;;1.37;0.67;;;9.60;99.90;9.90;99314.00;;;;5034153;28;20705;-72
2022/11/23 00:11:27;;;;;;;0.30;0.30;;;9.60;99.90;9.80;99315.00;;;;5034007;28;20292;-71
2022/11/23 00:13:55;;;;;;;0.30;0.30;;;9.60;99.90;9.90;99334.00;;;;5033794;28;20178;-71
2022/11/23 00:16:24;;;;;;;0.70;0.70;;;9.50;99.90;9.70;99328.00;;;;5033940;28;20193;-71
2022/11/23 00:18:56;;;;;;;0.30;0.30;;;9.50;99.90;9.90;99327.00;;;;5034583;28;20190;-70
2022/11/23 00:21:23;;;;;;;0.20;0.20;;;9.50;99.90;10.20;99340.00;;;;5034043;28;20233;-71
2022/11/23 00:23:50;;;;;;;0.70;0.70;;;9.60;99.90;9.90;99336.00;;;;5035049;28;20277;-71
2022/11/23 00:26:19;;;;;;;3.23;0.80;;;9.60;99.90;9.60;99336.00;;;;5034068;28;20206;-70
2022/11/23 00:28:49;;;;;;;0.30;0.30;;;9.50;99.90;10.50;99332.00;;;;5033474;28;20220;-70
2022/11/23 00:31:20;;;;;;;0.30;0.30;;;9.80;99.90;10.20;99332.00;;;;5020908;28;20218;-70
2022/11/23 00:34:10;;;;;;;0.30;0.30;;;9.80;99.90;9.80;99328.00;;;;5033420;28;20178;-71
2022/11/23 00:36:36;;;;;;;0.60;0.60;;;9.60;99.90;10.10;99332.00;;;;5031135;28;20222;-71
2022/11/23 00:39:09;;;;;;;2.80;1.17;;;9.70;99.90;10.10;99326.00;;;;5035139;28;20210;-71
2022/11/23 00:41:35;;;;;;;1.13;1.03;;;9.70;99.90;10.20;99333.00;;;;5030197;28;20282;-71
2022/11/23 00:44:04;;;;;;;0.47;0.47;;;9.80;99.90;10.10;99333.00;;;;5053688;28;20274;-71
2022/11/23 00:46:38;;;;;;;0.30;0.30;;;9.80;99.90;10.20;99282.00;;;;5017706;28;20191;-72
2022/11/23 00:49:05;;;;;;;0.27;0.27;;;9.80;99.90;9.90;99341.00;;;;5061733;28;20257;-70
2022/11/23 00:51:38;;;;;;;1.00;1.00;;;9.80;99.90;9.60;99341.00;;;;5035945;28;20205;-70
2022/11/23 00:54:12;;;;;;;0.40;0.40;;;9.70;99.90;9.70;99338.00;;;;5017242;28;20188;-70
2022/11/23 00:56:39;;;;;;;1.43;0.50;;;9.60;99.90;10.20;99337.00;;;;5013418;28;20194;-71
2022/11/23 00:59:05;;;;;;;2.30;0.40;;;9.70;99.90;9.60;99336.00;;;;5064424;28;20214;-71
2022/11/23 01:01:35;;;;;;;0.40;0.40;;;9.60;99.90;10.20;99346.00;;;;5032979;28;20627;-71
2022/11/23 01:04:03;;;;;;;0.73;0.73;;;9.70;99.90;9.60;99345.00;;;;5033098;28;20204;-71
2022/11/23 01:06:38;;;;;;;2.10;2.00;;;9.70;99.90;9.70;99306.00;;;;5033044;28;20179;-71
2022/11/23 01:09:20;;;;;;;0.63;0.63;;;9.60;99.90;9.80;99344.00;;;;5033071;28;20191;-71
2022/11/23 01:11:46;;;;;;;0.97;0.97;;;9.60;99.90;9.60;99347.00;;;;5033254;28;20205;-71
2022/11/23 01:14:12;;;;;;;0.47;0.47;;;9.60;99.90;9.80;99357.00;;;;5034897;28;20240;-71
2022/11/23 01:16:48;;;;;;;0.30;0.30;;;9.60;99.90;9.80;99348.00;;;;5032724;28;20217;-72
2022/11/23 01:19:22;;;;;;;0.23;0.23;;;9.60;99.90;9.60;99359.00;;;;5033019;28;20268;-71
2022/11/23 01:21:51;;;;;;;0.30;0.30;;;9.50;99.90;9.90;99351.00;;;;5033093;28;20236;-71
2022/11/23 01:24:26;;;;;;;1.53;0.87;;;9.50;99.90;9.20;99359.00;;;;5032890;28;20228;-71
2022/11/23 01:26:59;;;;;;;0.30;0.30;;;9.50;99.90;9.70;99360.00;;;;5036971;28;20175;-71
2022/11/23 01:29:25;;;;;;;0.47;0.47;;;9.50;99.90;9.90;99353.00;;;;5032090;28;20202;-71
2022/11/23 01:31:51;;;;;;;0.33;0.33;;;9.60;99.90;10.20;99309.00;;;;5033720;28;20217;-71
2022/11/23 01:34:17;;;;;;;0.63;0.63;;;9.70;99.90;10.10;99348.00;;;;5016278;28;20782;-71
2022/11/23 01:36:46;;;;;;;0.77;0.50;;;9.70;99.90;10.40;99360.00;;;;5027820;28;20218;-71
2022/11/23 01:39:12;;;;;;;0.50;0.50;;;9.80;99.90;9.40;99373.00;;;;5032532;28;20216;-71
2022/11/23 01:41:52;;;;;;;0.47;0.47;;;9.50;99.90;9.80;99370.00;;;;5032103;28;20251;-72
2022/11/23 01:44:33;;;;;;;0.20;0.20;;;9.60;99.90;10.00;99371.00;;;;5033683;28;20190;-71
2022/11/23 01:47:07;;;;;;;0.30;0.30;;;9.60;99.90;10.10;99368.00;;;;5033697;28;20190;-72
2022/11/23 01:49:41;;;;;;;0.50;0.50;;;9.70;99.90;10.00;99370.00;;;;5016250;28;20193;-71
2022/11/23 01:52:25;;;;;;;0.37;0.37;;;9.60;99.90;10.20;99362.00;;;;5032028;28;20669;-71
2022/11/23 01:54:57;;;;;;;0.20;0.20;;;9.80;99.90;9.80;99357.00;;;;5032203;28;20324;-71
2022/11/23 01:57:41;;;;;;;0.30;0.30;;;9.60;99.90;10.00;99360.00;;;;5032234;28;20186;-71
2022/11/23 02:00:17;;;;;;;0.20;0.20;;;9.70;99.90;9.90;99352.00;;;;5032288;28;20217;-71
2022/11/23 02:02:55;;;;;;;0.40;0.40;;;9.70;99.90;10.20;99355.00;;;;5065220;28;20205;-71
2022/11/23 02:05:36;;;;;;;0.20;0.20;;;9.80;99.90;10.20;99352.00;;;;5025796;28;20190;-71
2022/11/23 02:08:04;;;;;;;0.50;0.50;;;9.80;99.90;10.00;99361.00;;;;5015927;28;20527;-72
2022/11/23 02:10:35;;;;;;;0.40;0.40;;;9.80;99.90;10.20;99358.00;;;;5031697;28;20185;-72
2022/11/23 02:13:08;;;;;;;0.30;0.30;;;9.80;99.90;9.90;99362.00;;;;5031815;28;20672;-72
2022/11/23 02:15:42;;;;;;;0.40;0.40;;;9.70;99.90;9.60;99363.00;;;;5033058;28;20205;-71
2022/11/23 02:18:31;;;;;;;0.20;0.20;;;9.50;99.90;9.70;99359.00;;;;5021093;28;20190;-71
2022/11/23 02:21:02;;;;;;;0.50;0.50;;;9.50;99.90;9.80;99352.00;;;;5031641;28;20225;-71
2022/11/23 02:24:22;;;;;;;0.23;0.23;;;9.50;99.90;9.70;99349.00;;;;5031804;28;20213;-71
2022/11/23 02:26:48;;;;;;;2.27;2.17;;;9.50;99.90;9.60;99312.00;;;;5031967;28;20218;-71
2022/11/23 02:29:22;;;;;;;1.40;0.57;;;9.50;99.90;9.60;99355.00;;;;5031618;28;20613;-71
2022/11/23 02:31:48;;;;;;;0.30;0.30;;;9.50;99.90;9.30;99350.00;;;;5031249;28;20270;-71
2022/11/23 02:34:16;;;;;;;0.27;0.27;;;9.40;99.90;9.60;99356.00;;;;5048171;28;20201;-72
2022/11/23 02:36:48;;;;;;;0.60;0.60;;;9.50;99.90;9.30;99357.00;;;;5015724;28;20188;-72
2022/11/23 02:39:23;;;;;;;0.70;0.70;;;9.40;99.90;9.60;99359.00;;;;5031482;28;20179;-72
2022/11/23 02:41:52;;;;;;;3.30;0.70;;;9.40;99.90;9.40;99325.00;;;;5031872;28;20197;-71
2022/11/23 02:44:52;;;;;;;0.83;0.83;;;9.40;99.90;9.60;99360.00;;;;5031649;28;20205;-71
2022/11/23 02:47:18;;;;;;;1.50;0.50;;;9.40;99.90;9.70;99367.00;;;;5030629;28;20681;-71
2022/11/23 02:49:48;;;;;;;0.20;0.20;;;9.50;99.90;9.80;99364.00;;;;5064823;28;20229;-71
2022/11/23 02:52:16;;;;;;;0.20;0.20;;;9.50;99.90;9.50;99372.00;;;;5031624;28;20207;-71
2022/11/23 02:54:42;;;;;;;8.70;1.00;;;9.40;99.90;9.60;99368.00;;;;5031135;28;20192;-71
2022/11/23 02:57:08;;;;;;;0.20;0.20;;;9.50;99.90;9.70;99357.00;;;;5031234;28;20547;-71
2022/11/23 02:59:35;;;;;;;0.70;0.70;;;9.40;99.90;9.50;99381.00;;;;5032032;28;20293;-71
2022/11/23 03:02:03;;;;;;;0.30;0.30;;;9.40;99.90;9.60;99365.00;;;;5031460;28;20207;-71
2022/11/23 03:04:29;;;;;;;0.23;0.23;;;9.50;99.90;9.60;99315.00;;;;5022460;28;20191;-71
2022/11/23 03:06:55;;;;;;;0.40;0.40;;;9.50;99.90;9.40;99362.00;;;;5031984;28;20193;-71
2022/11/23 03:09:22;;;;;;;0.67;0.47;;;9.40;99.90;9.50;99373.00;;;;5037108;28;20197;-71
2022/11/23 03:11:48;;;;;;;0.30;0.30;;;9.30;99.90;10.20;99329.00;;;;5045579;28;20217;-71
2022/11/23 03:14:14;;;;;;;1.03;1.03;;;9.50;99.90;9.40;99365.00;;;;5031622;28;20182;-71
2022/11/23 03:16:39;;;;;;;0.73;0.47;;;9.40;99.90;9.40;99317.00;;;;5032279;28;20201;-71
2022/11/23 03:19:05;;;;;;;0.20;0.20;;;9.30;99.90;9.30;99365.00;;;;5034630;28;20204;-71
2022/11/23 03:21:31;;;;;;;0.30;0.30;;;9.20;99.90;9.40;99364.00;;;;5035312;28;20679;-71
2022/11/23 03:23:57;;;;;;;0.20;0.20;;;9.20;99.90;9.70;99359.00;;;;5051421;28;20189;-71
2022/11/23 03:26:23;;;;;;;0.20;0.20;;;9.20;99.90;9.30;99371.00;;;;5037028;28;20197;-71
2022/11/23 03:28:49;;;;;;;0.20;0.20;;;9.10;99.90;8.80;99368.00;;;;5033101;28;20215;-71
2022/11/23 03:31:15;;;;;;;0.20;0.20;;;8.90;99.90;9.70;99328.00;;;;5033313;28;20626;-71
2022/11/23 03:33:40;;;;;;;1.50;1.03;;;9.20;99.90;9.20;99374.00;;;;5035177;28;20589;-71
2022/11/23 03:36:07;;;;;;;0.20;0.20;;;9.10;99.90;9.20;99367.00;;;;5034545;28;20553;-71
2022/11/23 03:38:33;;;;;;;0.20;0.20;;;9.10;99.90;9.50;99383.00;;;;5038881;28;20299;-71
2022/11/23 03:40:58;;;;;;;0.60;0.60;;;9.10;99.90;9.60;99369.00;;;;5034538;28;20279;-71
2022/11/23 03:43:25;;;;;;;0.20;0.20;;;9.20;99.90;9.20;99357.00;;;;5034573;28;20622;-71
2022/11/23 03:45:50;;;;;;;1.03;0.27;;;9.10;99.90;9.20;99377.00;;;;5031860;28;20251;-71
2022/11/23 03:48:17;;;;;;;0.20;0.20;;;9.00;99.90;9.10;99365.00;;;;5034998;28;20525;-71
2022/11/23 03:50:44;;;;;;;0.20;0.20;;;9.00;99.90;9.20;99358.00;;;;5034153;28;20223;-71
2022/11/23 03:53:10;;;;;;;0.37;0.37;;;9.00;99.90;9.00;99357.00;;;;5034474;28;20250;-71
2022/11/23 03:55:36;;;;;;;0.20;0.20;;;9.00;99.90;9.30;99377.00;;;;5018380;28;20198;-71
2022/11/23 03:58:02;;;;;;;0.20;0.20;;;9.00;99.90;8.80;99374.00;;;;5035517;28;20185;-71
2022/11/23 04:00:30;;;;;;;0.40;0.40;;;8.90;99.90;8.90;99327.00;;;;5023509;28;20215;-70
2022/11/23 04:02:56;;;;;;;0.20;0.20;;;8.90;99.90;9.40;99379.00;;;;5065477;28;20193;-70
2022/11/23 04:05:22;;;;;;;1.80;0.60;;;9.00;99.90;9.40;99358.00;;;;5032362;28;20249;-72
2022/11/23 04:07:49;;;;;;;0.20;0.20;;;9.10;99.90;9.20;99376.00;;;;5062752;28;20213;-72
2022/11/23 04:10:18;;;;;;;0.30;0.30;;;9.00;99.90;8.80;99365.00;;;;5034575;28;20201;-72
2022/11/23 04:12:44;;;;;;;0.20;0.20;;;9.00;99.90;8.90;99363.00;;;;5035007;28;20217;-72
2022/11/23 04:15:11;;;;;;;0.20;0.20;;;8.90;99.90;9.20;99369.00;;;;5034220;28;20186;-72
2022/11/23 04:17:37;;;;;;;0.40;0.40;;;9.00;99.90;9.00;99366.00;;;;5035164;28;20250;-72
2022/11/23 04:20:05;;;;;;;0.20;0.20;;;9.00;99.90;9.50;99368.00;;;;5050557;28;20182;-72
2022/11/23 04:22:31;;;;;;;0.20;0.20;;;9.10;99.90;9.20;99321.00;;;;5021471;28;20197;-72
2022/11/23 04:24:56;;;;;;;0.20;0.20;;;9.10;99.90;9.20;99311.00;;;;5023344;28;20247;-72
2022/11/23 04:27:22;;;;;;;0.20;0.20;;;9.00;99.90;9.20;99365.00;;;;5033796;28;20278;-72
2022/11/23 04:29:48;;;;;;;1.70;0.63;;;9.00;99.90;9.40;99348.00;;;;5035461;28;20183;-72
2022/11/23 04:32:14;;;;;;;0.20;0.20;;;9.10;99.90;9.30;99348.00;;;;5014984;28;20213;-72
2022/11/23 04:34:40;;;;;;;0.20;0.20;;;9.00;99.90;9.30;99354.00;;;;5015346;28;20298;-72
2022/11/23 04:37:06;;;;;;;0.30;0.30;;;9.20;99.90;9.00;99343.00;;;;5032537;28;20239;-72
2022/11/23 04:39:31;;;;;;;0.20;0.20;;;9.00;99.90;9.10;99354.00;;;;5035197;28;20192;-72
2022/11/23 04:41:57;;;;;;;0.20;0.20;;;9.00;99.90;8.90;99351.00;;;;5016943;28;20186;-72
2022/11/23 04:44:23;;;;;;;2.43;0.50;;;8.90;99.90;8.80;99356.00;;;;5030901;28;20193;-72
2022/11/23 04:46:49;;;;;;;0.30;0.30;;;8.80;99.90;9.10;99356.00;;;;5033544;28;20184;-71
2022/11/23 04:49:16;;;;;;;0.60;0.60;;;8.80;99.90;8.60;99362.00;;;;5017013;28;21013;-71
2022/11/23 04:51:42;;;;;;;0.20;0.20;;;8.70;99.90;8.80;99311.00;;;;5034688;28;20208;-72
2022/11/23 04:54:08;;;;;;;0.70;0.27;;;8.70;99.90;8.90;99368.00;;;;5033415;28;20191;-72
2022/11/23 04:56:34;;;;;;;0.20;0.20;;;8.60;99.90;8.60;99364.00;;;;5020875;28;20184;-72
2022/11/23 04:59:00;;;;;;;0.83;0.70;;;8.60;99.90;8.50;99326.00;;;;5030610;28;20275;-72
2022/11/23 05:01:26;;;;;;;0.33;0.33;;;8.50;99.90;8.70;99373.00;;;;5020971;28;20347;-72
2022/11/23 05:03:51;;;;;;;1.90;0.93;;;8.50;99.90;8.80;99370.00;;;;5032736;28;20275;-72
2022/11/23 05:06:17;;;;;;;2.83;1.07;;;8.60;99.90;8.90;99369.00;;;;5034444;28;20262;-71
2022/11/23 05:08:43;;;;;;;0.60;0.60;;;8.60;99.90;8.60;99368.00;;;;5034346;28;20191;-70
2022/11/23 05:11:09;;;;;;;3.93;3.73;;;8.50;99.90;8.70;99367.00;;;;5013431;28;20547;-70
2022/11/23 05:13:35;;;;;;;0.30;0.30;;;8.40;99.90;8.80;99379.00;;;;5063894;28;20195;-71
2022/11/23 05:16:00;;;;;;;0.30;0.30;;;8.50;99.90;8.50;99322.00;;;;5032983;28;20278;-71
2022/11/23 05:18:26;;;;;;;0.77;0.77;;;8.40;99.90;8.60;99373.00;;;;5032408;28;20191;-71
2022/11/23 05:20:52;;;;;;;0.20;0.20;;;8.40;99.90;8.50;99364.00;;;;5032963;28;20194;-71
2022/11/23 05:23:18;;;;;;;0.33;0.33;;;8.30;99.90;8.30;99361.00;;;;5033773;28;20241;-71
2022/11/23 05:25:44;;;;;;;0.63;0.40;;;8.30;99.90;8.50;99363.00;;;;5032749;28;20249;-71
2022/11/23 05:28:19;;;;;;;1.20;0.83;;;8.30;99.90;8.70;99370.00;;;;5034166;28;20211;-71
2022/11/23 05:30:46;;;;;;;0.30;0.30;;;8.40;99.90;8.60;99362.00;;;;5032507;28;20182;-71
2022/11/23 05:33:12;;;;;;;0.20;0.20;;;8.40;99.90;8.60;99378.00;;;;5032075;28;20226;-70
2022/11/23 05:35:38;;;;;;;0.53;0.47;;;8.40;99.90;8.60;99326.00;;;;5032904;28;20196;-69
2022/11/23 05:38:04;;;;;;;6.07;0.90;;;8.40;99.90;8.50;99358.00;;;;5033439;28;20264;-70
2022/11/23 05:40:30;;;;;;;0.30;0.30;;;8.40;99.90;8.60;99326.00;;;;5032336;28;20188;-70
2022/11/23 05:42:57;;;;;;;0.30;0.30;;;8.40;99.90;8.50;99358.00;;;;5029756;28;20189;-70
2022/11/23 05:45:24;;;;;;;0.20;0.20;;;8.40;99.90;8.50;99386.00;;;;5029852;28;20187;-70
2022/11/23 05:47:56;;;;;;;0.70;0.70;;;8.40;99.90;8.40;99383.00;;;;5032173;28;20186;-70
2022/11/23 05:50:25;;;;;;;0.67;0.30;;;8.40;99.90;8.50;99370.00;;;;5049256;28;20525;-70
2022/11/23 05:52:51;;;;;;;0.30;0.30;;;8.40;99.90;8.80;99361.00;;;;5020590;28;20204;-70
2022/11/23 05:55:17;;;;;;;14.13;1.20;;;8.40;99.90;8.90;99369.00;;;;5032445;28;20201;-70
2022/11/23 05:57:43;;;;;;;3.30;0.80;;;8.50;99.90;8.50;99330.00;;;;5032228;28;20271;-70
2022/11/23 06:00:10;;;;;;;0.43;0.43;;;8.40;99.90;8.60;99329.00;;;;5031968;28;20276;-69
2022/11/23 06:02:37;;;;;;;0.30;0.30;;;8.40;99.90;8.50;99322.00;;;;5015260;28;20617;-69
2022/11/23 06:05:03;;;;;;;0.20;0.20;;;8.30;99.90;8.40;99352.00;;;;5036033;28;20189;-69
2022/11/23 06:07:34;;;;;;;2.83;0.50;;;8.30;99.90;8.30;99347.00;;;;5025078;28;20190;-69
2022/11/23 06:10:01;;;;;;;0.37;0.37;;;8.30;99.90;8.30;99349.00;;;;5033050;28;20193;-69
2022/11/23 06:12:28;;;;;;;0.53;0.53;;;8.30;99.90;8.40;99343.00;;;;5035432;28;20205;-70
2022/11/23 06:14:54;;;;;;;0.60;0.50;;;8.30;99.90;8.30;99344.00;;;;5023479;28;20185;-69
2022/11/23 06:17:21;;;;;;;0.30;0.30;;;8.30;99.90;8.30;99339.00;;;;5047811;28;20220;-69
2022/11/23 06:19:48;;;;;;;0.30;0.30;;;8.30;99.90;8.40;99347.00;;;;5032010;28;20188;-69
2022/11/23 06:22:14;;;;;;;0.43;0.43;;;8.30;99.90;8.40;99358.00;;;;5032047;28;20235;-69
2022/11/23 06:24:41;;;;;;;1.03;1.03;;;8.20;99.90;8.00;99353.00;;;;5013156;28;20236;-69
2022/11/23 06:27:08;;;;;;;0.30;0.30;;;8.20;99.90;8.20;99298.00;;;;5027084;28;20192;-69
2022/11/23 06:29:35;;;;;;;1.03;0.93;;;8.10;99.90;8.10;99357.00;;;;5032894;28;20192;-69
2022/11/23 06:32:01;;;;;;;0.30;0.30;;;8.10;99.90;8.00;99362.00;;;;5031191;28;20559;-69
2022/11/23 06:34:27;;;;;;;0.57;0.57;;;8.00;99.90;8.00;99353.00;;;;5031553;28;20652;-70
2022/11/23 06:36:53;;;;;;;1.67;1.17;;;7.90;99.90;7.70;99317.00;;;;5031707;28;20189;-68
2022/11/23 06:39:18;;;;;;;1.07;0.73;;;7.80;99.90;7.90;99368.00;;;;5032787;28;20217;-69
2022/11/23 06:41:44;;;;;;;1.50;1.33;;;7.80;99.90;7.80;99371.00;;;;5032497;28;20203;-69
2022/11/23 06:44:10;;;;;;;4.33;0.70;;;7.80;99.90;8.00;99355.00;;;;5029712;28;20194;-69
2022/11/23 06:46:36;;;;;;;1.23;0.80;;;7.80;99.90;7.80;99357.00;;;;5033832;28;20612;-69
2022/11/23 06:49:02;;;;;;;0.80;0.80;;;7.80;99.90;7.80;99339.00;;;;5023530;28;20275;-69
2022/11/23 06:51:28;;;;;;;0.30;0.30;;;7.70;99.90;7.80;99350.00;;;;5032833;28;20187;-69
2022/11/23 06:53:54;;;;;;;0.60;0.60;;;7.80;99.90;7.80;99360.00;;;;5034455;28;20293;-69
2022/11/23 06:56:19;;;;;;;0.30;0.30;;;7.70;99.90;7.80;99284.00;;;;5035361;28;20280;-69
2022/11/23 06:58:45;;;;;;;1.30;1.30;;;7.70;99.90;7.70;99369.00;;;;5036697;28;20184;-69
2022/11/23 07:01:11;;;;;;;4.10;1.17;;;7.60;99.90;7.60;99371.00;;;;5036162;28;20206;-69
2022/11/23 07:03:41;;;;;;;0.30;0.30;;;7.60;99.90;7.80;99374.00;;;;5035642;28;20238;-69
2022/11/23 07:06:08;;;;;;;0.30;0.30;;;7.60;99.90;7.60;99379.00;;;;5035184;28;20542;-69
2022/11/23 07:08:38;;;;;;;0.20;0.20;;;7.60;99.90;7.60;99383.00;;;;5035383;28;20185;-69
2022/11/23 07:11:05;;;;;;;0.30;0.30;;;7.50;99.90;7.50;99371.00;;;;5035210;28;20264;-69
2022/11/23 07:13:32;;;;;;;0.30;0.30;;;7.40;99.90;7.70;99391.00;;;;5035351;28;20352;-70
2022/11/23 07:15:58;;;;;;;0.30;0.30;;;7.40;99.90;7.50;99390.00;;;;5030942;28;20194;-70
2022/11/23 07:18:25;;;;;;;0.33;0.33;;;7.40;99.90;7.50;99394.00;;;;5035094;28;20187;-70
2022/11/23 07:20:51;;;;;;;0.60;0.30;;;7.40;99.90;7.30;99403.00;;;;5035372;28;20593;-69
2022/11/23 07:23:17;;;;;;;0.30;0.30;;;7.40;99.90;7.60;99395.00;;;;5035246;28;20219;-70
2022/11/23 07:25:43;;;;;;;0.40;0.40;;;7.40;99.90;7.60;99353.00;;;;5031702;28;20188;-70
2022/11/23 07:28:11;;;;;;;1.13;1.13;;;7.40;99.90;7.40;99408.00;;;;5028143;28;20544;-70
2022/11/23 07:30:40;;;;;;;1.60;0.57;;;7.40;99.90;7.40;99422.00;;;;5035012;28;20182;-69
2022/11/23 07:33:10;;;;;;;0.70;0.70;;;7.40;99.90;7.50;99423.00;;;;5034639;28;20207;-69
2022/11/23 07:35:37;;;;;;;1.33;1.33;;;7.40;99.90;7.40;99433.00;;;;5035102;28;20191;-69
2022/11/23 07:38:06;;;;;;;1.27;0.40;;;7.30;99.90;7.50;99432.00;;;;5064235;28;20182;-69
2022/11/23 07:40:39;;;;;;;0.70;0.70;;;7.40;99.90;7.30;99426.00;;;;5035017;28;20608;-69
2022/11/23 07:43:06;;;;;;;3.90;0.50;;;7.40;99.90;7.30;99437.00;;;;5035805;28;20695;-69
2022/11/23 07:45:33;;;;;;;0.77;0.77;;;7.30;99.90;7.40;99446.00;;;;5034167;28;20192;-69
2022/11/23 07:48:01;;;;;;;0.73;0.47;;;7.30;99.90;7.20;99451.00;;;;5066415;28;20545;-69
2022/11/23 07:50:28;;;;;;;0.57;0.37;;;7.20;99.90;7.30;99444.00;;;;5035668;28;20175;-69
2022/11/23 07:52:54;;;;;;;0.33;0.33;;;7.30;99.90;7.50;99406.00;;;;5034555;28;20282;-69
2022/11/23 07:55:20;;;;;;;2.33;1.03;;;7.30;99.90;7.30;99438.00;;;;5034371;28;21508;-69
2022/11/23 07:57:46;;;;;;;0.30;0.30;;;7.30;99.90;7.40;99448.00;;;;5034324;28;20657;-70
2022/11/23 08:00:13;;;;;;;0.40;0.40;;;7.30;99.90;7.20;99447.00;;;;5034556;28;20274;-70
2022/11/23 08:02:39;;;;;;;0.93;0.60;;;7.30;99.90;7.50;99389.00;;;;5034025;28;20199;-70
2022/11/23 08:05:06;;;;;;;1.27;0.70;;;7.30;99.90;7.20;99436.00;;;;5034731;28;20186;-70
2022/11/23 08:07:34;;;;;;;0.73;0.73;;;7.30;99.90;7.10;99444.00;;;;5028882;28;20227;-70
2022/11/23 08:10:01;;;;;;;6.53;1.07;;;7.30;99.90;7.30;99441.00;;;;5036933;28;20219;-69
2022/11/23 08:12:30;;;;;;;0.60;0.60;;;7.30;99.90;7.00;99446.00;;;;5034721;28;20202;-70
2022/11/23 08:14:56;;;;;;;0.47;0.40;;;7.30;99.90;7.20;99455.00;;;;5033860;28;20241;-70
2022/11/23 08:17:22;;;;;;;2.43;1.10;;;7.30;99.90;7.00;99465.00;;;;5033678;28;20183;-70
2022/11/23 08:19:48;;;;;;;1.40;1.20;;;7.30;99.90;7.30;99452.00;;;;5033989;28;20278;-70
2022/11/23 08:22:17;;;;;;;0.30;0.30;;;7.40;99.90;7.30;99453.00;;;;5034214;28;20199;-70
2022/11/23 08:25:04;;;;;;;1.37;1.00;;;7.40;99.90;7.40;99438.00;;;;5034098;28;20187;-70
2022/11/23 08:27:30;;;;;;;0.27;0.27;;;7.40;99.90;7.10;99430.00;;;;5017002;28;20270;-70
2022/11/23 08:29:56;;;;;;;0.40;0.40;;;7.40;99.90;7.20;99440.00;;;;5033785;28;20609;-70
2022/11/23 08:32:29;;;;;;;0.30;0.30;;;7.30;99.90;7.20;99430.00;;;;5031847;28;20245;-70
2022/11/23 08:35:13;;;;;;;0.50;0.50;;;7.40;99.90;7.30;99435.00;;;;5030087;28;20677;-69
2022/11/23 08:37:42;;;;;;;0.50;0.50;;;7.40;99.90;7.50;99403.00;;;;5026870;28;20188;-70
2022/11/23 08:40:18;;;;;;;0.83;0.83;;;7.50;99.90;7.50;99396.00;;;;5026898;28;20234;-70
2022/11/23 08:42:46;;;;;;;3.40;0.80;;;7.50;99.90;7.50;99401.00;;;;5028330;28;20648;-69
2022/11/23 08:45:12;;;;;;;1.03;1.03;;;7.60;99.90;7.50;99343.00;;;;5018932;28;20207;-70
2022/11/23 08:47:40;;;;;;;2.97;0.93;;;7.60;99.90;7.60;99399.00;;;;5022849;28;20229;-70
2022/11/23 08:50:07;;;;;;;1.73;0.73;;;7.60;99.90;7.60;99383.00;;;;5033296;28;20206;-69
2022/11/23 08:52:33;;;;;;;6.00;2.00;;;7.70;99.90;7.50;99383.00;;;;5033008;28;20234;-70
2022/11/23 08:55:00;;;;;;;1.70;1.27;;;7.60;99.90;7.60;99341.00;;;;5034312;28;20179;-68
2022/11/23 08:57:49;;;;;;;1.07;1.07;;;7.70;99.90;8.00;99384.00;;;;5033230;28;20227;-69
2022/11/23 09:00:15;;;;;;;2.43;0.93;;;7.80;99.90;7.80;99335.00;;;;5037093;28;20288;-69
2022/11/23 09:02:41;;;;;;;1.53;1.43;;;7.90;99.90;7.70;99386.00;;;;5049450;28;20203;-69
2022/11/23 09:05:08;;;;;;;0.40;0.40;;;7.90;99.90;7.80;99380.00;;;;5033371;28;20236;-66
2022/11/23 09:07:34;;;;;;;5.60;2.00;;;7.90;99.90;7.90;99388.00;;;;5034087;28;20193;-69
2022/11/23 09:10:02;;;;;;;1.80;0.90;;;8.00;99.90;7.90;99363.00;;;;5033987;28;20190;-68
2022/11/23 09:12:28;;;;;;;0.57;0.57;;;8.00;99.90;8.00;99374.00;;;;5033062;28;20287;-68
2022/11/23 09:14:57;;;;;;;1.07;0.97;;;8.00;99.90;8.00;99358.00;;;;5016364;28;20277;-70
2022/11/23 09:17:30;;;;;;;1.00;1.00;;;8.10;99.90;8.10;99373.00;;;;5046901;28;20201;-69
2022/11/23 09:19:56;;;;;;;1.80;0.97;;;8.20;99.90;7.90;99327.00;;;;5022344;28;20257;-69
2022/11/23 09:22:22;;;;;;;0.80;0.80;;;8.10;99.90;8.30;99384.00;;;;5027179;28;20658;-69
2022/11/23 09:24:50;;;;;;;0.80;0.80;;;8.20;99.90;8.10;99386.00;;;;5047384;28;20315;-69
2022/11/23 09:27:18;;;;;;;0.30;0.30;;;8.20;99.90;8.10;99387.00;;;;5033095;28;20184;-69
2022/11/23 09:29:47;;;;;;;3.50;0.90;;;8.20;99.90;8.20;99385.00;;;;5032695;28;20183;-69
2022/11/23 09:32:20;;;;;;;3.63;0.60;;;8.30;99.90;8.40;99384.00;;;;5032126;28;20242;-68
2022/11/23 09:34:47;;;;;;;1.57;1.47;;;8.30;99.90;8.10;99367.00;;;;5031046;28;20266;-69
2022/11/23 09:37:14;;;;;;;0.83;0.60;;;8.30;99.90;8.50;99333.00;;;;5027781;28;20219;-69
2022/11/23 09:39:40;;;;;;;0.70;0.70;;;8.40;99.90;8.50;99324.00;;;;5055094;28;20563;-70
2022/11/23 09:42:24;;;;;;;1.87;1.07;;;8.50;99.90;8.20;99376.00;;;;5031329;28;20654;-69
2022/11/23 09:45:20;;;;;;;1.77;0.70;;;8.50;99.90;8.30;99355.00;;;;5022782;28;20188;-69
2022/11/23 09:48:01;;;;;;;3.93;0.63;;;8.40;99.90;8.90;99352.00;;;;5047354;28;20644;-69
2022/11/23 09:51:22;;;;;;;1.00;1.00;;;8.60;99.90;8.80;99344.00;;;;5016010;28;20224;-69
2022/11/23 09:54:02;;;;;;;3.93;1.17;;;8.70;99.90;8.60;99343.00;;;;5010631;28;20186;-69
2022/11/23 09:56:48;;;;;;;2.07;1.70;;;8.80;99.90;8.70;99328.00;;;;5025163;28;20283;-68
2022/11/23 09:59:36;;;;;;;0.80;0.80;;;8.70;99.90;8.90;99344.00;;;;5022737;28;20206;-69
2022/11/23 10:02:14;;;;;;;1.83;0.70;;;8.80;99.90;9.00;99331.00;;;;5032181;28;20197;-69
2022/11/23 10:05:01;;;;;;;1.00;0.83;;;8.90;99.90;8.80;99324.00;;;;5031883;28;20190;-69
2022/11/23 10:08:15;;;;;;;0.50;0.50;;;8.90;99.90;8.90;99249.00;;;;5024845;28;20204;-69
2022/11/23 10:11:13;;;;;;;1.33;1.03;;;8.90;99.90;9.30;99296.00;;;;5017481;28;20209;-69
2022/11/23 10:14:26;;;;;;;0.93;0.90;;;9.00;99.90;9.30;99308.00;;;;5030368;28;20548;-69
2022/11/23 10:17:02;;;;;;;0.63;0.63;;;9.30;99.90;9.70;99284.00;;;;5033797;28;20661;-69
2022/11/23 10:19:48;;;;;;;2.23;0.60;;;9.40;99.90;9.20;99289.00;;;;5033631;28;20175;-69
2022/11/23 10:33:43;;;;;;;5.87;1.07;;;9.40;99.90;9.20;99263.00;;;;5070303;28;20546;-69
2022/11/23 10:36:12;;;;;;;1.33;1.20;;;9.50;99.90;9.70;99227.00;;;;5049424;28;20619;-68
2022/11/23 10:38:38;;;;;;;0.67;0.40;;;9.60;99.90;9.40;99263.00;;;;5049264;28;20184;-68
2022/11/23 10:41:12;;;;;;;0.70;0.70;;;9.60;99.90;9.50;99260.00;;;;5049268;28;20182;-67
2022/11/23 10:44:15;;;;;;;0.60;0.60;;;9.60;99.90;9.90;99258.00;;;;5049418;28;20189;-68
2022/11/23 10:46:41;;;;;;;0.57;0.57;;;9.70;99.90;10.10;99201.00;;;;5041309;28;20193;-68
2022/11/23 10:49:28;;;;;;;2.63;0.63;;;9.90;99.90;10.40;99223.00;;;;5049105;28;20180;-67
2022/11/23 10:52:05;;;;;;;1.13;0.90;;;10.10;99.90;10.50;99237.00;;;;5048849;28;20742;-68
2022/11/23 10:54:52;;;;;;;7.23;1.13;;;10.30;99.90;9.80;99248.00;;;;5065888;28;20173;-68
2022/11/23 10:57:33;;;;;;;0.70;0.70;;;10.10;99.90;9.40;99248.00;;;;5042707;28;20184;-68
2022/11/23 11:00:14;;;;;;;0.50;0.50;;;9.80;99.90;9.80;99235.00;;;;5054600;28;20211;-67
2022/11/23 11:02:49;;;;;;;0.70;0.70;;;9.80;99.90;9.90;99227.00;;;;5049662;28;20719;-67
2022/11/23 11:05:29;;;;;;;2.20;0.80;;;9.80;99.90;9.90;99222.00;;;;5049561;28;20661;-67
2022/11/23 11:08:20;;;;;;;1.73;1.00;;;9.90;99.90;10.20;99226.00;;;;5049523;28;20232;-67
2022/11/23 11:10:59;;;;;;;0.87;0.83;;;10.00;99.90;9.80;99172.00;;;;5048393;28;20194;-67
2022/11/23 11:13:41;;;;;;;0.47;0.47;;;10.00;99.90;9.90;99221.00;;;;5036744;28;20195;-67
2022/11/23 11:16:35;;;;;;;0.57;0.57;;;9.90;99.90;9.80;99223.00;;;;5045410;28;20186;-68
2022/11/23 11:19:41;;;;;;;5.83;0.83;;;9.80;99.90;10.00;99216.00;;;;5014307;28;20199;-67
2022/11/23 11:22:35;;;;;;;0.63;0.63;;;9.90;99.90;10.10;99206.00;;;;5038192;28;20198;-67
2022/11/23 11:25:41;;;;;;;0.83;0.83;;;9.90;99.90;9.40;99205.00;;;;5048572;28;20182;-67
2022/11/23 11:29:04;;;;;;;0.63;0.63;;;9.80;99.90;10.30;99187.00;;;;5044381;28;20189;-66
2022/11/23 11:32:02;;;;;;;0.77;0.63;;;9.90;99.90;10.00;99181.00;;;;5026961;28;20310;-67
2022/11/23 11:34:54;;;;;;;1.47;0.80;;;10.00;99.90;10.20;99128.00;;;;5020951;28;20239;-67
2022/11/23 11:37:37;;;;;;;1.83;1.63;;;10.10;99.90;10.10;99174.00;;;;5048972;28;20194;-67